Time;durP1;ratioP1;P1;durP2;ratioP2;P2;SDS_P1;SDS_P2;PMS_P1;PMS_P2;Temp;Humidity;BMP_temperature;BMP_pressure;BME280_temperature;BME280_humidity;BME280_pressure;Samples;Min_cycle;Max_cycle;Signal;HPM_P1;HPM_P2
2022/12/10 00:01:32;;;;;;;18.95;7.88;;;;;;;9.41;74.60;94000.09;4162434;28;20620;-57
2022/12/10 00:03:34;;;;;;;13.35;8.00;;;;;;;9.44;75.04;93991.09;4177714;28;20417;-55
2022/12/10 00:05:36;;;;;;;16.38;8.10;;;;;;;9.41;75.78;93996.66;4179157;28;20053;-51
2022/12/10 00:07:37;;;;;;;18.00;8.85;;;;;;;9.45;75.37;94005.81;4179075;28;20131;-53
2022/12/10 00:09:39;;;;;;;18.67;8.38;;;;;;;9.47;75.03;94008.25;4158129;28;20514;-58
2022/12/10 00:11:41;;;;;;;20.85;9.27;;;;;;;9.33;75.50;93996.69;4161387;28;20467;-58
2022/12/10 00:13:44;;;;;;;19.80;9.10;;;;;;;9.21;75.27;93999.69;4164299;28;20053;-56
2022/12/10 00:15:45;;;;;;;18.38;10.07;;;;;;;9.23;75.71;94005.56;4151387;28;20060;-60
2022/12/10 00:17:47;;;;;;;16.65;8.30;;;;;;;9.27;76.20;94010.44;4170101;28;20120;-54
2022/12/10 00:19:49;;;;;;;17.27;8.68;;;;;;;9.33;76.21;94000.13;4162800;28;20115;-57
2022/12/10 00:21:50;;;;;;;20.73;8.35;;;;;;;9.37;75.36;93990.16;4150113;28;20100;-59
2022/12/10 00:23:52;;;;;;;23.80;8.50;;;;;;;9.35;75.71;94007.81;4162474;28;20057;-55
2022/12/10 00:25:54;;;;;;;17.65;8.82;;;;;;;9.20;76.17;93984.97;4162230;28;20050;-58
2022/12/10 00:27:56;;;;;;;22.73;8.73;;;;;;;9.17;76.01;93989.72;4162911;28;20049;-58
2022/12/10 00:29:57;;;;;;;20.70;8.63;;;;;;;9.20;76.54;93994.59;4171015;28;20053;-60
2022/12/10 00:31:59;;;;;;;24.10;8.70;;;;;;;9.13;76.05;93985.81;4179160;28;20468;-59
2022/12/10 00:34:03;;;;;;;17.98;8.13;;;;;;;8.95;76.30;93981.63;4179465;28;20085;-57
2022/12/10 00:36:05;;;;;;;;;;;;;;;8.96;76.43;93998.91;4179653;28;20048;-56
2022/12/10 00:38:07;;;;;;;17.13;8.27;;;;;;;9.05;76.35;93997.09;4179192;28;20043;-59
2022/12/10 00:40:12;;;;;;;18.65;8.07;;;;;;;8.77;77.48;93991.44;4178576;28;20064;-59
2022/12/10 00:42:14;;;;;;;17.00;8.20;;;;;;;8.85;76.98;93990.63;4176648;28;20104;-56
2022/12/10 00:44:16;;;;;;;21.92;9.07;;;;;;;8.85;77.35;93985.41;4160333;28;20061;-59
2022/12/10 00:46:18;;;;;;;17.67;8.63;;;;;;;8.94;77.52;94003.47;4179381;28;20053;-56
2022/12/10 00:48:21;;;;;;;16.67;8.48;;;;;;;8.96;77.10;93992.88;4178749;28;20053;-57
2022/12/10 00:50:23;;;;;;;17.48;8.48;;;;;;;9.01;77.23;93995.78;4178857;28;20148;-59
2022/12/10 00:52:24;;;;;;;23.00;8.25;;;;;;;8.93;76.70;93995.84;4177810;28;20608;-57
2022/12/10 00:54:26;;;;;;;21.70;7.75;;;;;;;8.98;76.46;93999.56;4167766;28;20049;-61
2022/12/10 00:56:32;;;;;;;17.17;8.35;;;;;;;8.98;75.76;93996.13;4179182;28;20135;-60
2022/12/10 00:58:35;;;;;;;17.92;7.63;;;;;;;8.84;76.95;94005.47;4176501;28;20053;-57
2022/12/10 01:00:36;;;;;;;20.67;7.93;;;;;;;8.91;76.44;94016.88;4177778;28;20114;-55
2022/12/10 01:02:38;;;;;;;15.77;8.13;;;;;;;9.04;77.08;93998.09;4178031;28;20361;-57
2022/12/10 01:04:40;;;;;;;19.40;9.15;;;;;;;9.17;76.49;94000.19;4178066;28;20066;-58
2022/12/10 01:06:48;;;;;;;16.85;8.93;;;;;;;9.29;76.39;93987.56;4178680;28;20140;-60
2022/12/10 01:08:51;;;;;;;19.30;8.68;;;;;;;9.35;76.73;93995.53;4153822;28;20041;-62
2022/12/10 01:10:53;;;;;;;22.30;8.52;;;;;;;9.40;76.02;94001.09;4177987;28;20053;-62
2022/12/10 01:12:54;;;;;;;19.70;9.38;;;;;;;9.45;75.33;94005.81;4177401;28;20474;-59
2022/12/10 01:14:56;;;;;;;19.83;9.15;;;;;;;9.38;76.27;93997.84;4174997;28;20076;-58
2022/12/10 01:17:02;;;;;;;21.55;8.68;;;;;;;9.25;76.44;93996.72;4174457;28;20127;-58
2022/12/10 01:19:05;;;;;;;23.13;8.95;;;;;;;9.21;77.07;93996.25;4156796;28;20053;-58
2022/12/10 01:21:09;;;;;;;19.48;9.40;;;;;;;9.22;76.89;93988.22;4146029;28;20058;-58
2022/12/10 01:23:11;;;;;;;24.08;10.32;;;;;;;9.07;77.13;93974.22;4158770;28;20053;-59
2022/12/10 01:25:12;;;;;;;23.25;9.75;;;;;;;9.01;77.21;93986.19;4145606;28;20540;-55
2022/12/10 01:27:14;;;;;;;20.10;9.35;;;;;;;9.07;77.76;93989.09;4152884;28;20106;-62
2022/12/10 01:29:16;;;;;;;29.35;10.05;;;;;;;9.14;77.78;93985.66;4150781;28;20140;-56
2022/12/10 01:31:24;;;;;;;19.42;8.82;;;;;;;9.20;77.61;93979.72;4144654;28;20085;-53
2022/12/10 01:33:26;;;;;;;19.65;8.82;;;;;;;9.27;77.15;93979.06;4156109;28;20042;-52
2022/12/10 01:35:27;;;;;;;18.45;8.27;;;;;;;9.08;77.37;93943.69;4161613;28;20076;-56
2022/12/10 01:37:29;;;;;;;19.98;8.30;;;;;;;8.89;77.99;93969.22;4171164;28;20041;-56
2022/12/10 01:39:31;;;;;;;24.02;8.48;;;;;;;8.93;77.87;93980.97;4175511;28;20118;-55
2022/12/10 01:41:36;;;;;;;16.27;8.35;;;;;;;9.02;77.96;93973.94;4174133;28;20057;-55
2022/12/10 01:43:56;;;;;;;28.58;8.57;;;;;;;9.15;77.96;93978.63;4174596;28;20494;-53
2022/12/10 01:45:58;;;;;;;18.58;8.75;;;;;;;9.07;77.59;93979.44;4152981;28;20052;-55
2022/12/10 01:48:00;;;;;;;20.65;8.93;;;;;;;8.98;77.04;93977.84;4162158;28;20070;-54
2022/12/10 01:50:09;;;;;;;16.20;8.27;;;;;;;9.05;77.87;93981.41;4155003;28;20057;-53
2022/12/10 01:52:12;;;;;;;17.35;8.23;;;;;;;9.14;77.88;93975.22;4147664;28;20046;-61
2022/12/10 01:54:20;;;;;;;20.33;8.70;;;;;;;9.05;77.47;93964.94;4153595;28;20089;-57
2022/12/10 01:56:22;;;;;;;19.17;8.48;;;;;;;8.84;78.12;93962.84;4161297;28;20073;-57
2022/12/10 01:58:24;;;;;;;16.98;6.53;;;;;;;8.73;77.97;93957.03;4159793;28;20140;-60
2022/12/10 02:00:25;;;;;;;12.20;6.05;;;;;;;8.82;78.27;93960.44;4156702;28;20109;-57
2022/12/10 02:02:46;;;;;;;13.75;6.57;;;;;;;8.99;77.96;93969.84;4176205;28;20048;-56
2022/12/10 02:05:24;;;;;;;17.60;7.80;;;;;;;9.10;77.25;93963.47;4163488;28;20176;-56
2022/12/10 02:07:32;;;;;;;13.65;6.53;;;;;;;9.20;77.66;93965.88;4155278;28;20050;-56
2022/12/10 02:09:40;;;;;;;18.90;7.50;;;;;;;9.28;77.22;93984.13;4156499;28;20053;-56
2022/12/10 02:11:46;;;;;;;15.48;7.47;;;;;;;9.30;77.23;93990.00;4147362;28;20108;-56
2022/12/10 02:14:02;;;;;;;14.57;6.80;;;;;;;9.38;77.29;93992.59;4160856;28;20870;-57
2022/12/10 02:16:21;;;;;;;12.98;6.30;;;;;;;9.48;77.19;93986.34;4175664;28;20487;-59
2022/12/10 02:18:31;;;;;;;12.93;7.07;;;;;;;9.51;76.62;93976.38;4159079;28;20055;-56
2022/12/10 02:20:57;;;;;;;13.95;6.40;;;;;;;9.51;76.87;93957.28;4153722;28;20044;-53
2022/12/10 02:23:07;;;;;;;15.63;6.30;;;;;;;9.32;76.96;93956.69;4172438;28;20486;-54
2022/12/10 02:25:11;;;;;;;16.73;7.38;;;;;;;9.21;77.25;93946.59;4148077;28;20099;-56
2022/12/10 02:27:40;;;;;;;14.75;6.60;;;;;;;9.28;77.15;93955.38;4162202;28;20064;-55
2022/12/10 02:29:43;;;;;;;22.02;7.53;;;;;;;9.39;77.37;93954.19;4156734;28;20486;-58
2022/12/10 02:31:52;;;;;;;19.75;7.20;;;;;;;9.48;76.85;93952.38;4153196;28;20110;-55
2022/12/10 02:33:57;;;;;;;13.07;6.20;;;;;;;9.48;76.38;93941.91;4155848;28;20045;-54
2022/12/10 02:35:59;;;;;;;20.88;6.88;;;;;;;9.16;77.69;93935.81;4146687;28;20089;-54
2022/12/10 02:38:17;;;;;;;12.32;6.03;;;;;;;9.22;77.84;93938.56;4142617;28;20050;-58
2022/12/10 02:40:23;;;;;;;18.10;7.63;;;;;;;9.27;77.44;93932.88;4142133;28;20053;-57
2022/12/10 02:42:26;;;;;;;12.10;6.63;;;;;;;9.27;77.35;93939.88;4149976;28;20092;-54
2022/12/10 02:44:28;;;;;;;13.80;7.03;;;;;;;9.34;77.45;93925.97;4168682;28;20567;-55
2022/12/10 02:46:43;;;;;;;10.82;6.35;;;;;;;9.34;76.67;93920.72;4174991;28;20048;-52
2022/12/10 02:48:46;;;;;;;16.38;6.80;;;;;;;9.19;77.57;93927.66;4165970;28;20463;-55
2022/12/10 02:50:48;;;;;;;19.98;7.38;;;;;;;9.14;77.82;93938.63;4151073;28;20117;-55
2022/12/10 02:52:49;;;;;;;19.65;6.82;;;;;;;9.05;78.00;93930.97;4168660;28;20044;-54
2022/12/10 02:54:52;;;;;;;16.02;7.50;;;;;;;8.99;78.92;93935.91;4171824;28;20064;-55
2022/12/10 02:56:59;;;;;;;19.13;7.43;;;;;;;9.06;78.58;93940.44;4175149;28;20067;-56
2022/12/10 02:59:12;;;;;;;13.30;6.85;;;;;;;9.10;78.76;93952.16;4172809;28;20060;-55
2022/12/10 03:01:37;;;;;;;12.73;7.15;;;;;;;9.24;78.56;93930.56;4175603;28;20083;-56
2022/12/10 03:03:50;;;;;;;17.05;7.18;;;;;;;9.22;77.98;93935.97;4169468;28;20100;-54
2022/12/10 03:06:22;;;;;;;13.20;7.00;;;;;;;9.15;78.15;93931.59;4160255;28;20088;-55
2022/12/10 03:08:48;;;;;;;13.98;7.30;;;;;;;9.04;78.84;93931.97;4166100;28;20211;-56
2022/12/10 03:11:08;;;;;;;18.48;7.25;;;;;;;9.13;78.90;93947.44;4153175;28;20098;-57
2022/12/10 03:13:13;;;;;;;15.52;7.72;;;;;;;9.26;78.76;93944.28;4176071;28;20057;-54
2022/12/10 03:15:16;;;;;;;15.20;7.60;;;;;;;9.26;77.37;93930.41;4172867;28;20075;-54
2022/12/10 03:17:18;;;;;;;17.42;6.78;;;;;;;9.14;78.29;93936.00;4170301;28;20042;-52
2022/12/10 03:19:22;;;;;;;16.85;7.68;;;;;;;9.25;78.69;93929.59;4150738;28;20422;-54
2022/12/10 03:21:27;;;;;;;17.33;7.25;;;;;;;9.24;78.36;93920.13;4153845;28;20128;-53
2022/12/10 03:23:29;;;;;;;17.35;7.20;;;;;;;9.18;78.79;93933.84;4146615;28;20049;-53
2022/12/10 03:25:32;;;;;;;15.07;7.03;;;;;;;9.28;78.66;93950.16;4158659;28;20081;-56
2022/12/10 03:27:34;;;;;;;12.32;5.68;;;;;;;9.36;77.97;93929.22;4149138;28;20085;-52
2022/12/10 03:29:41;;;;;;;15.35;6.65;;;;;;;9.39;77.14;93928.88;4154874;28;20076;-55
2022/12/10 03:31:43;;;;;;;19.52;6.97;;;;;;;9.44;77.10;93920.50;4144225;28;20137;-53
2022/12/10 03:33:45;;;;;;;12.68;7.00;;;;;;;9.45;77.45;93913.50;4149261;28;20049;-53
2022/12/10 03:35:47;;;;;;;12.05;7.38;;;;;;;9.47;77.51;93922.00;4147578;28;20137;-57
2022/12/10 03:37:49;;;;;;;16.27;6.82;;;;;;;9.55;77.13;93929.75;4169964;28;20075;-56
2022/12/10 03:39:51;;;;;;;13.55;6.88;;;;;;;9.58;76.99;93932.06;4170734;28;20398;-56
2022/12/10 03:41:53;;;;;;;21.15;6.72;;;;;;;9.64;76.89;93921.72;4155676;28;20594;-58
2022/12/10 03:43:58;;;;;;;10.35;6.25;;;;;;;9.67;76.69;93925.78;4174482;28;20060;-56
2022/12/10 03:46:01;;;;;;;14.48;6.72;;;;;;;9.46;78.37;93921.16;4175240;28;20056;-53
2022/12/10 03:48:02;;;;;;;15.07;6.75;;;;;;;9.40;78.00;93904.38;4175512;28;20559;-52
2022/12/10 03:50:04;;;;;;;12.18;6.20;;;;;;;9.30;78.69;93885.47;4176171;28;20105;-53
2022/12/10 03:52:07;;;;;;;12.88;6.53;;;;;;;9.20;80.00;93877.81;4175712;28;20055;-52
2022/12/10 03:54:08;;;;;;;17.92;6.70;;;;;;;9.34;79.88;93891.19;4166430;28;20129;-55
2022/12/10 03:56:10;;;;;;;15.52;6.78;;;;;;;9.42;79.98;93893.72;4179431;28;20481;-55
2022/12/10 03:58:12;;;;;;;15.95;7.15;;;;;;;9.50;79.86;93898.91;4178722;28;20065;-59
2022/12/10 04:00:20;;;;;;;11.98;6.15;;;;;;;9.51;79.35;93891.91;4177933;28;20049;-58
2022/12/10 04:02:22;;;;;;;14.30;6.35;;;;;;;9.51;79.81;93886.69;4152558;28;20045;-54
2022/12/10 04:04:24;;;;;;;13.77;6.18;;;;;;;9.45;80.56;93884.75;4159401;28;20054;-55
2022/12/10 04:06:26;;;;;;;11.23;5.65;;;;;;;9.53;80.39;93902.97;4161265;28;20149;-54
2022/12/10 04:08:28;;;;;;;15.43;6.50;;;;;;;9.66;80.48;93902.41;4162373;28;20049;-57
2022/12/10 04:10:29;;;;;;;10.32;6.13;;;;;;;9.54;80.81;93894.16;4167517;28;20057;-56
2022/12/10 04:12:31;;;;;;;12.07;5.97;;;;;;;9.58;80.89;93914.56;4167089;28;20053;-55
2022/12/10 04:16:53;;;;;;;21.35;7.65;;;;;;;9.60;80.76;93896.09;4157645;28;20062;-52
2022/12/10 04:18:56;;;;;;;13.23;5.85;;;;;;;9.37;81.21;93880.34;4161995;28;20068;-53
2022/12/10 04:28:02;;;;;;;20.83;6.40;;;;;;;9.83;79.77;93923.09;4175885;28;20131;-57
2022/12/10 04:30:07;;;;;;;16.88;7.15;;;;;;;9.91;78.89;93937.09;4175259;28;20056;-55
2022/12/10 04:32:10;;;;;;;8.43;5.10;;;;;;;9.76;78.42;93929.16;4177886;28;20139;-55
2022/12/10 04:34:12;;;;;;;12.73;5.85;;;;;;;9.78;78.74;93930.63;4177518;28;20057;-57
2022/12/10 04:36:13;;;;;;;15.85;6.13;;;;;;;9.92;78.91;93938.72;4149808;28;20065;-59
2022/12/10 04:38:15;;;;;;;16.67;6.00;;;;;;;9.99;78.61;93930.00;4165995;28;20045;-57
2022/12/10 04:40:17;;;;;;;12.70;6.93;;;;;;;10.06;78.40;93922.25;4164688;28;20049;-58
2022/12/10 04:42:19;;;;;;;19.63;6.30;;;;;;;10.13;78.02;93932.84;4166129;28;20115;-57
2022/12/10 04:44:21;;;;;;;13.55;6.38;;;;;;;10.20;77.70;93942.44;4176319;28;20057;-55
2022/12/10 04:46:23;;;;;;;11.80;6.03;;;;;;;10.25;77.59;93942.72;4178405;28;20055;-54
2022/12/10 04:48:25;;;;;;;16.83;6.32;;;;;;;10.29;77.17;93943.22;4177863;28;20053;-52
2022/12/10 04:50:26;;;;;;;12.38;6.57;;;;;;;10.31;77.21;93935.22;4178052;28;20123;-54
2022/12/10 04:52:28;;;;;;;9.85;5.72;;;;;;;10.28;77.11;93914.56;4177752;28;20040;-55
2022/12/10 04:54:30;;;;;;;10.48;6.18;;;;;;;10.28;77.05;93930.28;4166641;28;20468;-57
2022/12/10 04:56:39;;;;;;;12.65;6.00;;;;;;;10.34;77.58;93940.09;4178019;28;20053;-58
2022/12/10 04:58:42;;;;;;;11.90;5.25;;;;;;;10.25;77.17;93921.78;4176817;28;20057;-56
2022/12/10 05:00:43;;;;;;;18.65;6.40;;;;;;;10.05;78.21;93921.47;4177480;28;20052;-57
2022/12/10 05:02:48;;;;;;;11.55;5.70;;;;;;;10.08;78.29;93937.78;4177699;28;20099;-57
2022/12/10 05:04:49;;;;;;;9.30;4.95;;;;;;;10.13;78.02;93925.81;4161328;28;20407;-55
2022/12/10 05:06:51;;;;;;;12.02;5.72;;;;;;;10.19;78.16;93913.81;4155503;28;20054;-56
2022/12/10 05:08:53;;;;;;;21.10;6.68;;;;;;;10.23;77.86;93931.63;4154381;28;20057;-59
2022/12/10 05:10:55;;;;;;;10.43;5.82;;;;;;;10.27;77.80;93934.72;4148624;28;20069;-57
2022/12/10 05:12:57;;;;;;;11.90;6.60;;;;;;;10.20;78.09;93928.56;4144946;28;20042;-57
2022/12/10 05:14:59;;;;;;;15.90;6.25;;;;;;;10.10;77.77;93920.94;4143859;28;20103;-54
2022/12/10 05:17:00;;;;;;;12.00;5.78;;;;;;;10.16;78.42;93911.56;4147797;28;20057;-57
2022/12/10 05:19:02;;;;;;;12.18;6.05;;;;;;;10.17;78.38;93894.88;4172625;28;20060;-54
2022/12/10 05:21:07;;;;;;;18.20;6.32;;;;;;;10.02;79.03;93889.59;4152083;28;20053;-51
2022/12/10 05:25:29;;;;;;;13.85;5.85;;;;;;;10.12;78.55;93895.41;4175483;28;20557;-56
2022/12/10 05:27:32;;;;;;;15.93;6.03;;;;;;;10.19;78.83;93905.97;4163734;28;20657;-56
2022/12/10 05:29:34;;;;;;;15.35;6.03;;;;;;;9.90;79.76;93896.22;4174630;28;20048;-53
2022/12/10 05:31:35;;;;;;;10.65;5.68;;;;;;;9.90;80.15;93915.34;4177247;28;20466;-55
2022/12/10 05:33:37;;;;;;;16.90;6.53;;;;;;;9.97;79.91;93931.16;4175014;28;20142;-58
2022/12/10 05:35:39;;;;;;;10.80;6.05;;;;;;;10.02;79.62;93934.91;4171562;28;20057;-58
2022/12/10 05:37:40;;;;;;;15.13;6.22;;;;;;;10.10;79.25;93920.13;4169053;28;20048;-56
2022/12/10 05:39:42;;;;;;;9.88;5.40;;;;;;;10.04;79.00;93924.25;4174058;28;20048;-57
2022/12/10 05:41:45;;;;;;;14.98;6.53;;;;;;;10.09;79.42;93926.31;4146694;28;20109;-58
2022/12/10 05:43:47;;;;;;;15.02;6.38;;;;;;;10.13;79.18;93917.97;4152212;28;20161;-54
2022/12/10 05:45:49;;;;;;;15.32;6.45;;;;;;;9.97;80.01;93918.88;4173350;28;20487;-54
2022/12/10 05:47:50;;;;;;;16.42;6.05;;;;;;;9.94;80.50;93928.91;4176974;28;20131;-56
2022/12/10 05:49:52;;;;;;;12.48;6.47;;;;;;;10.02;80.85;93947.16;4177134;28;20078;-53
2022/12/10 05:51:55;;;;;;;10.63;6.07;;;;;;;10.09;80.16;93937.63;4177442;28;20124;-55
2022/12/10 05:53:58;;;;;;;12.20;6.28;;;;;;;9.78;81.20;93917.53;4155987;28;20487;-57
2022/12/10 05:56:04;;;;;;;14.27;6.97;;;;;;;9.64;82.52;93910.44;4172261;28;20053;-57
2022/12/10 05:58:06;;;;;;;12.77;6.57;;;;;;;9.76;82.74;93937.00;4168586;28;20548;-56
2022/12/10 06:00:08;;;;;;;15.10;6.65;;;;;;;9.89;82.00;93944.28;4152823;28;20439;-56
2022/12/10 06:02:10;;;;;;;14.85;6.80;;;;;;;9.97;81.35;93944.25;4157508;28;20131;-57
2022/12/10 06:04:12;;;;;;;13.95;6.82;;;;;;;9.87;82.03;93938.41;4154677;28;20068;-54
2022/12/10 06:06:20;;;;;;;15.18;7.78;;;;;;;9.97;81.93;93945.06;4173591;28;20057;-57
2022/12/10 06:08:22;;;;;;;15.75;6.97;;;;;;;10.07;81.45;93950.06;4171640;28;20053;-56
2022/12/10 06:10:24;;;;;;;16.80;7.53;;;;;;;10.14;80.94;93945.75;4168651;28;20338;-60
2022/12/10 06:12:25;;;;;;;16.63;6.88;;;;;;;10.21;80.80;93949.31;4176556;28;20360;-55
2022/12/10 06:14:27;;;;;;;15.18;6.88;;;;;;;10.25;80.37;93942.72;4175230;28;20386;-55
2022/12/10 06:16:29;;;;;;;13.75;7.03;;;;;;;10.25;79.97;93942.72;4177053;28;20041;-58
2022/12/10 06:18:31;;;;;;;10.68;6.70;;;;;;;10.28;80.06;93938.94;4161479;28;20067;-55
2022/12/10 06:20:32;;;;;;;14.75;6.97;;;;;;;10.33;79.92;93948.94;4160267;28;20057;-56
2022/12/10 06:22:34;;;;;;;15.63;7.40;;;;;;;10.37;79.58;93934.50;4159885;28;20061;-54
2022/12/10 06:24:36;;;;;;;15.10;8.02;;;;;;;10.32;79.47;93932.41;4148780;28;20060;-56
2022/12/10 06:26:37;;;;;;;16.27;7.93;;;;;;;10.32;79.91;93942.06;4146477;28;20133;-55
2022/12/10 06:28:40;;;;;;;14.25;6.97;;;;;;;10.37;79.78;93935.31;4153884;28;20068;-56
2022/12/10 06:30:41;;;;;;;15.00;7.47;;;;;;;10.43;79.68;93911.06;4153439;28;20126;-55
2022/12/10 06:32:43;;;;;;;18.92;7.70;;;;;;;10.47;79.38;93901.00;4148510;28;20080;-56
2022/12/10 06:34:45;;;;;;;13.82;7.18;;;;;;;10.51;79.40;93901.47;4158096;28;20056;-55
2022/12/10 06:36:46;;;;;;;12.93;6.72;;;;;;;10.58;79.33;93900.59;4150748;28;20514;-58
2022/12/10 06:38:48;;;;;;;14.15;7.65;;;;;;;10.62;78.83;93904.47;4151024;28;20054;-59
2022/12/10 06:40:50;;;;;;;17.15;7.10;;;;;;;10.65;78.73;93916.41;4155555;28;20137;-57
2022/12/10 06:42:52;;;;;;;12.27;7.63;;;;;;;10.68;79.06;93923.91;4173568;28;20049;-57
2022/12/10 06:44:54;;;;;;;18.30;7.97;;;;;;;10.62;78.99;93922.81;4175389;28;20062;-57
2022/12/10 06:46:55;;;;;;;17.30;7.93;;;;;;;10.50;79.86;93921.63;4176979;28;20053;-58
2022/12/10 06:48:57;;;;;;;15.02;7.25;;;;;;;10.54;79.89;93927.31;4177054;28;20083;-54
2022/12/10 06:50:59;;;;;;;16.50;8.38;;;;;;;10.58;79.89;93937.28;4176833;28;20080;-54
2022/12/10 06:53:01;;;;;;;15.30;7.70;;;;;;;10.64;79.33;93952.25;4174179;28;20048;-56
2022/12/10 06:55:03;;;;;;;19.25;8.07;;;;;;;10.68;79.57;93937.00;4169753;28;20041;-57
2022/12/10 06:57:05;;;;;;;17.08;7.95;;;;;;;10.58;79.97;93946.91;4177101;28;20085;-59
2022/12/10 06:59:07;;;;;;;17.60;7.78;;;;;;;10.64;79.81;93941.78;4145628;28;20076;-60
2022/12/10 07:01:20;;;;;;;21.73;7.97;;;;;;;10.63;79.90;93940.16;4167559;28;20058;-55
2022/12/10 07:03:21;;;;;;;26.88;8.70;;;;;;;10.68;80.03;93942.25;4173126;28;20068;-55
2022/12/10 07:05:23;;;;;;;14.13;7.88;;;;;;;10.59;79.95;93938.88;4152352;28;20101;-55
2022/12/10 07:07:25;;;;;;;20.65;8.65;;;;;;;10.61;80.12;93951.81;4164995;28;20062;-59
2022/12/10 07:09:26;;;;;;;14.43;7.28;;;;;;;10.64;80.44;93961.91;4148863;28;20053;-57
2022/12/10 07:11:30;;;;;;;17.63;7.50;;;;;;;10.68;80.44;93957.16;4143893;28;20058;-56
2022/12/10 07:13:32;;;;;;;12.55;7.00;;;;;;;10.70;79.82;93949.94;4142419;28;20053;-55
2022/12/10 07:15:33;;;;;;;18.90;7.60;;;;;;;10.57;79.70;93947.91;4144374;28;20058;-57
2022/12/10 07:17:35;;;;;;;15.55;7.40;;;;;;;10.35;80.86;93947.78;4165054;28;20045;-54
2022/12/10 07:19:37;;;;;;;15.63;7.57;;;;;;;10.47;81.19;93935.06;4154396;28;20604;-58
2022/12/10 07:21:42;;;;;;;13.68;7.63;;;;;;;10.58;80.69;93934.66;4155320;28;20080;-56
2022/12/10 07:23:46;;;;;;;16.02;7.45;;;;;;;10.66;80.55;93942.41;4160377;28;20102;-57
2022/12/10 07:25:47;;;;;;;15.40;8.20;;;;;;;10.69;80.18;93932.56;4153421;28;20088;-58
2022/12/10 07:27:49;;;;;;;17.48;8.02;;;;;;;10.48;79.95;93912.31;4159008;28;20662;-58
2022/12/10 07:29:58;;;;;;;14.82;8.07;;;;;;;10.28;81.49;93912.75;4160692;28;20064;-56
2022/12/10 07:31:59;;;;;;;14.57;7.38;;;;;;;10.35;81.74;93916.34;4164300;28;20057;-55
2022/12/10 07:34:01;;;;;;;14.20;7.72;;;;;;;10.44;81.22;93922.34;4152174;28;20620;-57
2022/12/10 07:36:05;;;;;;;14.18;7.80;;;;;;;10.51;80.53;93914.56;4157642;28;20438;-57
2022/12/10 07:38:07;;;;;;;17.23;7.93;;;;;;;10.42;80.36;93908.59;4171425;28;20137;-57
2022/12/10 07:40:09;;;;;;;17.10;8.20;;;;;;;10.43;81.04;93920.69;4153869;28;20455;-60
2022/12/10 07:42:11;;;;;;;14.90;8.10;;;;;;;10.51;80.80;93925.84;4162056;28;20131;-58
2022/12/10 07:44:13;;;;;;;15.77;7.40;;;;;;;10.63;80.77;93931.50;4165441;28;20464;-59
2022/12/10 07:46:23;;;;;;;14.20;8.05;;;;;;;10.75;80.44;93929.25;4167011;28;20355;-54
2022/12/10 07:48:25;;;;;;;15.25;9.07;;;;;;;10.87;79.93;93925.19;4158040;28;20116;-58
2022/12/10 07:50:27;;;;;;;16.60;9.07;;;;;;;10.93;79.64;93923.69;4161060;28;20097;-57
2022/12/10 07:52:28;;;;;;;13.48;7.82;;;;;;;10.98;79.35;93921.31;4165020;28;20053;-56
2022/12/10 07:54:30;;;;;;;17.17;7.65;;;;;;;11.06;79.62;93908.94;4167735;28;20045;-57
2022/12/10 07:56:32;;;;;;;15.75;8.50;;;;;;;11.11;79.04;93904.97;4155547;28;20076;-56
2022/12/10 07:58:34;;;;;;;14.65;9.10;;;;;;;11.15;78.91;93911.47;4157340;28;20056;-59
2022/12/10 08:00:35;;;;;;;17.35;8.93;;;;;;;11.23;78.71;93917.44;4168491;28;20049;-58
2022/12/10 08:02:37;;;;;;;17.20;9.32;;;;;;;11.32;78.58;93907.66;4170031;28;20150;-56
2022/12/10 08:04:39;;;;;;;19.45;9.55;;;;;;;11.41;78.17;93906.53;4163048;28;20049;-57
2022/12/10 08:06:41;;;;;;;15.43;7.78;;;;;;;11.42;77.63;93892.44;4166970;28;20056;-57
2022/12/10 08:08:43;;;;;;;16.50;7.45;;;;;;;11.22;77.12;93878.28;4178289;28;20134;-58
2022/12/10 08:10:45;;;;;;;12.75;8.50;;;;;;;11.20;77.57;93885.50;4178946;28;20509;-59
2022/12/10 08:12:47;;;;;;;15.65;8.00;;;;;;;11.11;77.56;93878.75;4178279;28;20426;-58
2022/12/10 08:14:48;;;;;;;20.15;9.10;;;;;;;10.93;78.56;93879.94;4177435;28;20507;-57
2022/12/10 08:16:50;;;;;;;15.93;8.45;;;;;;;10.98;78.82;93879.38;4161826;28;20095;-55
2022/12/10 08:18:53;;;;;;;13.70;9.25;;;;;;;11.10;78.80;93882.34;4166261;28;20052;-58
2022/12/10 08:20:55;;;;;;;17.45;8.90;;;;;;;11.23;78.84;93885.16;4178852;28;20080;-56
2022/12/10 08:22:56;;;;;;;14.55;8.20;;;;;;;11.36;78.65;93887.13;4178561;28;20049;-58
2022/12/10 08:24:58;;;;;;;16.08;8.77;;;;;;;11.33;77.57;93885.66;4177470;28;20053;-56
2022/12/10 08:26:59;;;;;;;25.42;12.65;;;;;;;11.34;77.87;93897.00;4178902;28;20898;-57
2022/12/10 08:29:01;;;;;;;18.92;8.85;;;;;;;11.39;77.62;93879.69;4177074;28;20138;-58
2022/12/10 08:31:04;;;;;;;17.33;8.57;;;;;;;11.44;77.44;93861.63;4178948;28;20045;-59
2022/12/10 08:33:06;;;;;;;20.20;9.20;;;;;;;11.48;77.41;93867.28;4178160;28;20137;-57
2022/12/10 08:35:08;;;;;;;16.42;8.73;;;;;;;11.60;77.75;93878.13;4178389;28;20049;-57
2022/12/10 08:37:09;;;;;;;17.35;8.45;;;;;;;11.47;77.02;93868.28;4178229;28;20053;-59
2022/12/10 08:39:16;;;;;;;16.33;9.13;;;;;;;11.31;77.74;93860.63;4164707;28;20053;-59
2022/12/10 08:41:20;;;;;;;15.15;9.02;;;;;;;11.18;78.62;93856.03;4147093;28;20184;-59
2022/12/10 08:43:22;;;;;;;18.95;9.80;;;;;;;11.27;78.74;93854.94;4155903;28;20465;-57
2022/12/10 08:45:24;;;;;;;15.48;9.68;;;;;;;11.36;78.75;93866.97;4145306;28;20135;-58
2022/12/10 08:47:25;;;;;;;18.40;9.60;;;;;;;11.41;78.30;93869.84;4146113;28;20058;-59
2022/12/10 08:49:27;;;;;;;20.40;9.40;;;;;;;11.53;78.08;93864.94;4144207;28;20152;-55
2022/12/10 08:51:28;;;;;;;18.95;9.65;;;;;;;11.75;77.99;93865.75;4158812;28;20118;-56
2022/12/10 08:53:30;;;;;;;17.45;9.35;;;;;;;11.93;77.35;93852.22;4170656;28;20641;-57
2022/12/10 08:55:33;;;;;;;22.70;10.82;;;;;;;11.96;76.09;93854.50;4175219;28;20083;-55
2022/12/10 08:57:35;;;;;;;16.60;9.60;;;;;;;11.95;76.09;93846.81;4178660;28;20079;-59
2022/12/10 08:59:37;;;;;;;18.42;10.55;;;;;;;11.83;76.62;93851.69;4176780;28;20225;-58
2022/12/10 09:01:38;;;;;;;19.05;10.98;;;;;;;11.85;76.76;93855.78;4178422;28;20416;-56
2022/12/10 09:03:40;;;;;;;21.00;10.57;;;;;;;11.96;76.63;93857.13;4157059;28;20204;-55
2022/12/10 09:05:42;;;;;;;15.65;10.48;;;;;;;12.10;76.36;93852.78;4171613;28;20049;-53
2022/12/10 09:07:43;;;;;;;15.38;9.80;;;;;;;12.25;76.10;93845.63;4178321;28;20052;-55
2022/12/10 09:09:46;;;;;;;22.00;10.70;;;;;;;12.21;75.40;93843.59;4177628;28;20064;-58
2022/12/10 09:11:47;;;;;;;17.48;11.25;;;;;;;12.18;75.39;93838.72;4171038;28;20103;-59
2022/12/10 09:13:49;;;;;;;16.77;11.45;;;;;;;12.13;75.77;93830.59;4170046;28;20575;-57
2022/12/10 09:15:52;;;;;;;21.17;12.10;;;;;;;11.92;76.07;93824.38;4175420;28;20106;-53
2022/12/10 09:17:54;;;;;;;19.98;12.48;;;;;;;11.89;76.57;93829.97;4160904;28;20045;-57
2022/12/10 09:19:55;;;;;;;21.88;12.15;;;;;;;12.00;76.21;93831.28;4161517;28;20064;-53
2022/12/10 09:21:57;;;;;;;20.13;11.55;;;;;;;12.00;76.19;93836.53;4158760;28;20763;-56
2022/12/10 09:23:59;;;;;;;18.17;12.02;;;;;;;11.82;76.66;93835.13;4150061;28;20051;-56
2022/12/10 09:26:04;;;;;;;25.98;12.70;;;;;;;11.81;76.66;93833.53;4161476;28;20065;-55
2022/12/10 09:28:06;;;;;;;20.27;12.00;;;;;;;11.65;77.20;93826.69;4174415;28;20053;-56
2022/12/10 09:30:09;;;;;;;18.73;10.52;;;;;;;11.66;77.24;93814.41;4164491;28;20556;-58
2022/12/10 09:32:11;;;;;;;25.83;10.60;;;;;;;11.58;78.06;93804.03;4177699;28;20431;-59
2022/12/10 09:34:13;;;;;;;18.40;11.20;;;;;;;11.83;77.58;93810.53;4177299;28;20096;-59
2022/12/10 09:36:15;;;;;;;15.75;10.60;;;;;;;12.05;77.12;93816.59;4176582;28;20104;-59
2022/12/10 09:38:17;;;;;;;18.00;10.32;;;;;;;12.23;76.34;93810.06;4175447;28;20529;-57
2022/12/10 09:40:25;;;;;;;18.05;10.75;;;;;;;12.46;75.69;93815.09;4162388;28;20498;-59
2022/12/10 09:43:09;;;;;;;15.40;10.07;;;;;;;12.75;75.55;93802.72;4143470;28;20069;-57
2022/12/10 09:45:22;;;;;;;17.10;9.88;;;;;;;12.81;74.02;93801.94;4152053;28;20092;-54
2022/12/10 09:47:30;;;;;;;16.08;9.70;;;;;;;12.72;73.97;93787.34;4147656;28;20570;-55
2022/12/10 09:49:54;;;;;;;20.80;11.60;;;;;;;12.62;74.95;93796.38;4143449;28;20496;-55
2022/12/10 09:51:59;;;;;;;15.25;9.98;;;;;;;12.75;74.76;93800.91;4155454;28;20041;-58